sensor_id;sensor_type;location;lat;lon;timestamp;P1;durP1;ratioP1;P2;durP2;ratioP2
68010;SDS011;54794;48.348;7.878;2024-02-15T00:01:42;1.67;;;0.50;;
68010;SDS011;54794;48.348;7.878;2024-02-15T00:04:09;0.90;;;0.60;;
68010;SDS011;54794;48.348;7.878;2024-02-15T00:06:37;0.88;;;0.45;;
68010;SDS011;54794;48.348;7.878;2024-02-15T00:09:06;1.27;;;0.50;;
68010;SDS011;54794;48.348;7.878;2024-02-15T00:11:33;1.60;;;0.63;;
68010;SDS011;54794;48.348;7.878;2024-02-15T00:14:05;1.60;;;0.47;;
68010;SDS011;54794;48.348;7.878;2024-02-15T00:16:35;4.18;;;0.57;;
68010;SDS011;54794;48.348;7.878;2024-02-15T00:19:09;0.57;;;0.40;;
68010;SDS011;54794;48.348;7.878;2024-02-15T00:21:42;1.25;;;0.50;;
68010;SDS011;54794;48.348;7.878;2024-02-15T00:24:10;0.98;;;0.52;;
68010;SDS011;54794;48.348;7.878;2024-02-15T00:26:41;1.35;;;0.60;;
68010;SDS011;54794;48.348;7.878;2024-02-15T00:29:15;1.27;;;0.50;;
68010;SDS011;54794;48.348;7.878;2024-02-15T00:31:42;1.27;;;0.50;;
68010;SDS011;54794;48.348;7.878;2024-02-15T00:34:09;1.60;;;0.50;;
68010;SDS011;54794;48.348;7.878;2024-02-15T00:36:42;1.00;;;0.60;;
68010;SDS011;54794;48.348;7.878;2024-02-15T00:39:11;1.75;;;0.60;;
68010;SDS011;54794;48.348;7.878;2024-02-15T00:41:47;0.93;;;0.60;;
68010;SDS011;54794;48.348;7.878;2024-02-15T00:44:22;0.60;;;0.40;;
68010;SDS011;54794;48.348;7.878;2024-02-15T00:46:49;1.27;;;0.50;;
68010;SDS011;54794;48.348;7.878;2024-02-15T00:49:16;1.45;;;0.73;;
68010;SDS011;54794;48.348;7.878;2024-02-15T00:51:51;1.15;;;0.60;;
68010;SDS011;54794;48.348;7.878;2024-02-15T00:54:18;1.15;;;0.55;;
68010;SDS011;54794;48.348;7.878;2024-02-15T00:56:45;0.70;;;0.40;;
68010;SDS011;54794;48.348;7.878;2024-02-15T00:59:14;1.00;;;0.50;;
68010;SDS011;54794;48.348;7.878;2024-02-15T01:01:41;0.88;;;0.50;;
68010;SDS011;54794;48.348;7.878;2024-02-15T01:04:08;1.17;;;0.57;;
68010;SDS011;54794;48.348;7.878;2024-02-15T01:06:40;0.90;;;0.45;;
68010;SDS011;54794;48.348;7.878;2024-02-15T01:09:08;0.88;;;0.40;;
68010;SDS011;54794;48.348;7.878;2024-02-15T01:11:36;0.73;;;0.50;;
68010;SDS011;54794;48.348;7.878;2024-02-15T01:14:05;0.57;;;0.43;;
68010;SDS011;54794;48.348;7.878;2024-02-15T01:16:36;2.38;;;0.45;;
68010;SDS011;54794;48.348;7.878;2024-02-15T01:19:03;0.60;;;0.50;;
68010;SDS011;54794;48.348;7.878;2024-02-15T01:21:30;2.17;;;0.47;;
68010;SDS011;54794;48.348;7.878;2024-02-15T01:23:59;0.52;;;0.45;;
68010;SDS011;54794;48.348;7.878;2024-02-15T01:26:27;0.52;;;0.38;;
68010;SDS011;54794;48.348;7.878;2024-02-15T01:28:56;0.82;;;0.45;;
68010;SDS011;54794;48.348;7.878;2024-02-15T01:31:23;0.50;;;0.40;;
68010;SDS011;54794;48.348;7.878;2024-02-15T01:33:50;0.70;;;0.43;;
68010;SDS011;54794;48.348;7.878;2024-02-15T01:36:17;0.75;;;0.40;;
68010;SDS011;54794;48.348;7.878;2024-02-15T01:38:47;0.80;;;0.32;;
68010;SDS011;54794;48.348;7.878;2024-02-15T01:41:17;1.98;;;0.70;;
68010;SDS011;54794;48.348;7.878;2024-02-15T01:43:45;0.70;;;0.40;;
68010;SDS011;54794;48.348;7.878;2024-02-15T01:46:12;2.13;;;0.60;;
68010;SDS011;54794;48.348;7.878;2024-02-15T01:48:44;4.00;;;0.40;;
68010;SDS011;54794;48.348;7.878;2024-02-15T01:51:12;1.35;;;0.43;;
68010;SDS011;54794;48.348;7.878;2024-02-15T01:53:44;0.40;;;0.30;;
68010;SDS011;54794;48.348;7.878;2024-02-15T01:56:12;1.70;;;0.43;;
68010;SDS011;54794;48.348;7.878;2024-02-15T01:58:43;0.70;;;0.47;;
68010;SDS011;54794;48.348;7.878;2024-02-15T02:01:14;0.90;;;0.40;;
68010;SDS011;54794;48.348;7.878;2024-02-15T02:03:43;2.00;;;0.40;;
68010;SDS011;54794;48.348;7.878;2024-02-15T02:06:15;0.85;;;0.38;;
68010;SDS011;54794;48.348;7.878;2024-02-15T02:08:44;0.55;;;0.43;;
68010;SDS011;54794;48.348;7.878;2024-02-15T02:11:12;3.05;;;0.40;;
68010;SDS011;54794;48.348;7.878;2024-02-15T02:13:43;0.57;;;0.30;;
68010;SDS011;54794;48.348;7.878;2024-02-15T02:16:26;1.02;;;0.50;;
68010;SDS011;54794;48.348;7.878;2024-02-15T02:19:01;1.05;;;0.30;;
68010;SDS011;54794;48.348;7.878;2024-02-15T02:21:31;1.25;;;0.40;;
68010;SDS011;54794;48.348;7.878;2024-02-15T02:24:04;1.60;;;0.38;;
68010;SDS011;54794;48.348;7.878;2024-02-15T02:26:39;0.82;;;0.32;;
68010;SDS011;54794;48.348;7.878;2024-02-15T02:29:07;0.88;;;0.35;;
68010;SDS011;54794;48.348;7.878;2024-02-15T02:31:37;0.93;;;0.50;;
68010;SDS011;54794;48.348;7.878;2024-02-15T02:34:04;2.08;;;0.50;;
68010;SDS011;54794;48.348;7.878;2024-02-15T02:36:33;0.47;;;0.38;;
68010;SDS011;54794;48.348;7.878;2024-02-15T02:39:02;1.83;;;0.40;;
68010;SDS011;54794;48.348;7.878;2024-02-15T02:41:32;0.88;;;0.40;;
68010;SDS011;54794;48.348;7.878;2024-02-15T02:43:59;0.60;;;0.28;;
68010;SDS011;54794;48.348;7.878;2024-02-15T02:46:26;1.55;;;0.32;;
68010;SDS011;54794;48.348;7.878;2024-02-15T02:48:56;0.75;;;0.40;;
68010;SDS011;54794;48.348;7.878;2024-02-15T02:51:26;1.48;;;0.40;;
68010;SDS011;54794;48.348;7.878;2024-02-15T02:53:57;1.00;;;0.40;;
68010;SDS011;54794;48.348;7.878;2024-02-15T02:56:31;1.33;;;0.40;;
68010;SDS011;54794;48.348;7.878;2024-02-15T02:58:59;2.42;;;0.40;;
68010;SDS011;54794;48.348;7.878;2024-02-15T03:01:29;0.52;;;0.25;;
68010;SDS011;54794;48.348;7.878;2024-02-15T03:03:56;0.70;;;0.20;;
68010;SDS011;54794;48.348;7.878;2024-02-15T03:06:24;0.98;;;0.40;;
68010;SDS011;54794;48.348;7.878;2024-02-15T03:11:21;1.83;;;0.22;;
68010;SDS011;54794;48.348;7.878;2024-02-15T03:13:48;0.73;;;0.47;;
68010;SDS011;54794;48.348;7.878;2024-02-15T03:16:21;1.35;;;0.30;;
68010;SDS011;54794;48.348;7.878;2024-02-15T03:18:51;3.60;;;0.50;;
68010;SDS011;54794;48.348;7.878;2024-02-15T03:21:19;0.40;;;0.22;;
68010;SDS011;54794;48.348;7.878;2024-02-15T03:23:50;0.75;;;0.38;;
68010;SDS011;54794;48.348;7.878;2024-02-15T03:26:30;0.50;;;0.25;;
68010;SDS011;54794;48.348;7.878;2024-02-15T03:29:04;0.57;;;0.30;;
68010;SDS011;54794;48.348;7.878;2024-02-15T03:31:34;0.65;;;0.32;;
68010;SDS011;54794;48.348;7.878;2024-02-15T03:34:03;0.70;;;0.40;;
68010;SDS011;54794;48.348;7.878;2024-02-15T03:36:31;1.45;;;0.30;;
68010;SDS011;54794;48.348;7.878;2024-02-15T03:39:00;0.80;;;0.30;;
68010;SDS011;54794;48.348;7.878;2024-02-15T03:41:27;1.40;;;0.40;;
68010;SDS011;54794;48.348;7.878;2024-02-15T03:43:59;0.65;;;0.30;;
68010;SDS011;54794;48.348;7.878;2024-02-15T03:46:28;1.13;;;0.35;;
68010;SDS011;54794;48.348;7.878;2024-02-15T03:48:55;1.20;;;0.38;;
68010;SDS011;54794;48.348;7.878;2024-02-15T03:51:26;0.75;;;0.30;;
68010;SDS011;54794;48.348;7.878;2024-02-15T03:53:55;0.80;;;0.40;;
68010;SDS011;54794;48.348;7.878;2024-02-15T03:56:22;0.35;;;0.20;;
68010;SDS011;54794;48.348;7.878;2024-02-15T03:58:49;1.85;;;0.30;;
68010;SDS011;54794;48.348;7.878;2024-02-15T04:01:19;0.32;;;0.20;;
68010;SDS011;54794;48.348;7.878;2024-02-15T04:03:46;0.43;;;0.40;;
68010;SDS011;54794;48.348;7.878;2024-02-15T04:06:13;1.30;;;0.30;;
68010;SDS011;54794;48.348;7.878;2024-02-15T04:08:43;1.27;;;0.45;;
68010;SDS011;54794;48.348;7.878;2024-02-15T04:11:13;0.63;;;0.40;;
68010;SDS011;54794;48.348;7.878;2024-02-15T04:13:46;0.70;;;0.30;;
68010;SDS011;54794;48.348;7.878;2024-02-15T04:16:13;0.60;;;0.30;;
68010;SDS011;54794;48.348;7.878;2024-02-15T04:18:40;0.60;;;0.28;;
68010;SDS011;54794;48.348;7.878;2024-02-15T04:21:12;0.80;;;0.40;;
68010;SDS011;54794;48.348;7.878;2024-02-15T04:23:40;1.48;;;0.38;;
68010;SDS011;54794;48.348;7.878;2024-02-15T04:26:15;0.40;;;0.25;;
68010;SDS011;54794;48.348;7.878;2024-02-15T04:28:48;0.45;;;0.30;;
68010;SDS011;54794;48.348;7.878;2024-02-15T04:31:19;1.17;;;0.40;;
68010;SDS011;54794;48.348;7.878;2024-02-15T04:33:53;1.88;;;0.47;;
68010;SDS011;54794;48.348;7.878;2024-02-15T04:36:23;2.35;;;0.30;;
68010;SDS011;54794;48.348;7.878;2024-02-15T04:38:51;0.75;;;0.40;;
68010;SDS011;54794;48.348;7.878;2024-02-15T04:41:19;0.50;;;0.30;;
68010;SDS011;54794;48.348;7.878;2024-02-15T04:43:49;1.63;;;0.35;;
68010;SDS011;54794;48.348;7.878;2024-02-15T04:46:20;0.63;;;0.40;;
68010;SDS011;54794;48.348;7.878;2024-02-15T04:48:51;2.92;;;0.30;;
68010;SDS011;54794;48.348;7.878;2024-02-15T04:51:24;0.40;;;0.30;;
68010;SDS011;54794;48.348;7.878;2024-02-15T04:53:54;2.50;;;0.43;;
68010;SDS011;54794;48.348;7.878;2024-02-15T04:56:21;1.75;;;0.45;;
68010;SDS011;54794;48.348;7.878;2024-02-15T04:58:49;1.75;;;0.60;;
68010;SDS011;54794;48.348;7.878;2024-02-15T05:01:21;1.20;;;0.50;;
68010;SDS011;54794;48.348;7.878;2024-02-15T05:03:52;1.00;;;0.47;;
68010;SDS011;54794;48.348;7.878;2024-02-15T05:06:23;1.90;;;0.50;;
68010;SDS011;54794;48.348;7.878;2024-02-15T05:08:56;3.03;;;1.10;;
68010;SDS011;54794;48.348;7.878;2024-02-15T05:13:51;2.25;;;0.60;;
68010;SDS011;54794;48.348;7.878;2024-02-15T05:16:18;1.13;;;0.45;;
68010;SDS011;54794;48.348;7.878;2024-02-15T05:18:48;0.40;;;0.28;;
68010;SDS011;54794;48.348;7.878;2024-02-15T05:21:19;1.00;;;0.40;;
68010;SDS011;54794;48.348;7.878;2024-02-15T05:23:49;1.10;;;0.32;;
68010;SDS011;54794;48.348;7.878;2024-02-15T05:26:25;0.77;;;0.40;;
68010;SDS011;54794;48.348;7.878;2024-02-15T05:28:54;0.50;;;0.32;;
68010;SDS011;54794;48.348;7.878;2024-02-15T05:31:28;0.60;;;0.32;;
68010;SDS011;54794;48.348;7.878;2024-02-15T05:33:55;0.95;;;0.40;;
68010;SDS011;54794;48.348;7.878;2024-02-15T05:36:24;0.45;;;0.30;;
68010;SDS011;54794;48.348;7.878;2024-02-15T05:38:57;0.80;;;0.50;;
68010;SDS011;54794;48.348;7.878;2024-02-15T05:41:33;1.48;;;0.50;;
68010;SDS011;54794;48.348;7.878;2024-02-15T05:44:01;0.80;;;0.50;;
68010;SDS011;54794;48.348;7.878;2024-02-15T05:46:33;0.70;;;0.30;;
68010;SDS011;54794;48.348;7.878;2024-02-15T05:49:09;1.42;;;0.40;;
68010;SDS011;54794;48.348;7.878;2024-02-15T05:51:44;0.85;;;0.30;;
68010;SDS011;54794;48.348;7.878;2024-02-15T05:54:16;0.65;;;0.32;;
68010;SDS011;54794;48.348;7.878;2024-02-15T05:56:48;1.48;;;0.38;;
68010;SDS011;54794;48.348;7.878;2024-02-15T05:59:20;1.65;;;0.57;;
68010;SDS011;54794;48.348;7.878;2024-02-15T06:01:47;1.33;;;0.60;;
68010;SDS011;54794;48.348;7.878;2024-02-15T06:04:39;1.33;;;0.32;;
68010;SDS011;54794;48.348;7.878;2024-02-15T06:07:21;1.25;;;0.50;;
68010;SDS011;54794;48.348;7.878;2024-02-15T06:09:50;0.60;;;0.40;;
68010;SDS011;54794;48.348;7.878;2024-02-15T06:12:23;0.63;;;0.40;;
68010;SDS011;54794;48.348;7.878;2024-02-15T06:14:50;0.60;;;0.38;;
68010;SDS011;54794;48.348;7.878;2024-02-15T06:17:19;1.05;;;0.40;;
68010;SDS011;54794;48.348;7.878;2024-02-15T06:19:49;1.42;;;0.45;;
68010;SDS011;54794;48.348;7.878;2024-02-15T06:22:19;1.60;;;0.50;;
68010;SDS011;54794;48.348;7.878;2024-02-15T06:24:46;1.20;;;0.47;;
68010;SDS011;54794;48.348;7.878;2024-02-15T06:27:13;1.60;;;0.57;;
68010;SDS011;54794;48.348;7.878;2024-02-15T06:29:42;3.13;;;0.63;;
68010;SDS011;54794;48.348;7.878;2024-02-15T06:32:30;1.05;;;0.60;;
68010;SDS011;54794;48.348;7.878;2024-02-15T06:35:21;1.20;;;0.65;;
68010;SDS011;54794;48.348;7.878;2024-02-15T06:38:16;1.63;;;0.60;;
68010;SDS011;54794;48.348;7.878;2024-02-15T06:41:15;1.60;;;0.70;;
68010;SDS011;54794;48.348;7.878;2024-02-15T06:43:52;0.88;;;0.60;;
68010;SDS011;54794;48.348;7.878;2024-02-15T06:46:21;1.27;;;0.77;;
68010;SDS011;54794;48.348;7.878;2024-02-15T06:48:57;1.58;;;0.77;;
68010;SDS011;54794;48.348;7.878;2024-02-15T06:51:39;2.30;;;0.75;;
68010;SDS011;54794;48.348;7.878;2024-02-15T06:54:17;1.27;;;0.82;;
68010;SDS011;54794;48.348;7.878;2024-02-15T06:56:49;4.97;;;1.90;;
68010;SDS011;54794;48.348;7.878;2024-02-15T06:59:25;1.40;;;0.75;;
68010;SDS011;54794;48.348;7.878;2024-02-15T07:01:52;1.45;;;0.88;;
68010;SDS011;54794;48.348;7.878;2024-02-15T07:04:24;2.25;;;0.90;;
68010;SDS011;54794;48.348;7.878;2024-02-15T07:07:00;1.83;;;0.73;;
68010;SDS011;54794;48.348;7.878;2024-02-15T07:09:34;1.27;;;0.57;;
68010;SDS011;54794;48.348;7.878;2024-02-15T07:12:09;0.98;;;0.80;;
68010;SDS011;54794;48.348;7.878;2024-02-15T07:14:36;1.13;;;0.73;;
68010;SDS011;54794;48.348;7.878;2024-02-15T07:17:06;1.52;;;0.77;;
68010;SDS011;54794;48.348;7.878;2024-02-15T07:19:33;0.93;;;0.63;;
68010;SDS011;54794;48.348;7.878;2024-02-15T07:22:03;1.50;;;1.00;;
68010;SDS011;54794;48.348;7.878;2024-02-15T07:24:30;4.13;;;0.80;;
68010;SDS011;54794;48.348;7.878;2024-02-15T07:26:58;1.17;;;0.50;;
68010;SDS011;54794;48.348;7.878;2024-02-15T07:29:26;1.40;;;0.70;;
68010;SDS011;54794;48.348;7.878;2024-02-15T07:31:54;3.35;;;0.60;;
68010;SDS011;54794;48.348;7.878;2024-02-15T07:34:55;0.93;;;0.57;;
68010;SDS011;54794;48.348;7.878;2024-02-15T07:37:50;2.35;;;0.70;;
68010;SDS011;54794;48.348;7.878;2024-02-15T07:40:33;2.35;;;0.85;;
68010;SDS011;54794;48.348;7.878;2024-02-15T07:43:10;2.20;;;0.93;;
68010;SDS011;54794;48.348;7.878;2024-02-15T07:46:14;1.25;;;0.82;;
68010;SDS011;54794;48.348;7.878;2024-02-15T07:49:02;1.80;;;0.70;;
68010;SDS011;54794;48.348;7.878;2024-02-15T07:52:00;1.73;;;0.80;;
68010;SDS011;54794;48.348;7.878;2024-02-15T07:54:27;1.17;;;0.80;;
68010;SDS011;54794;48.348;7.878;2024-02-15T07:56:56;1.23;;;0.57;;
68010;SDS011;54794;48.348;7.878;2024-02-15T07:59:24;3.55;;;0.82;;
68010;SDS011;54794;48.348;7.878;2024-02-15T08:01:51;2.05;;;0.93;;
68010;SDS011;54794;48.348;7.878;2024-02-15T08:04:18;1.30;;;0.70;;
68010;SDS011;54794;48.348;7.878;2024-02-15T08:06:47;1.55;;;0.90;;
68010;SDS011;54794;48.348;7.878;2024-02-15T08:09:15;1.85;;;0.90;;
68010;SDS011;54794;48.348;7.878;2024-02-15T08:11:44;1.10;;;0.75;;
68010;SDS011;54794;48.348;7.878;2024-02-15T08:14:11;2.33;;;0.90;;
68010;SDS011;54794;48.348;7.878;2024-02-15T08:16:39;1.70;;;1.08;;
68010;SDS011;54794;48.348;7.878;2024-02-15T08:19:07;2.38;;;1.20;;
68010;SDS011;54794;48.348;7.878;2024-02-15T08:21:35;3.15;;;1.10;;
68010;SDS011;54794;48.348;7.878;2024-02-15T08:24:03;2.15;;;1.17;;
68010;SDS011;54794;48.348;7.878;2024-02-15T08:26:33;3.58;;;1.60;;
68010;SDS011;54794;48.348;7.878;2024-02-15T08:29:08;3.28;;;1.50;;
68010;SDS011;54794;48.348;7.878;2024-02-15T08:31:35;2.05;;;1.40;;
68010;SDS011;54794;48.348;7.878;2024-02-15T08:34:03;3.00;;;1.42;;
68010;SDS011;54794;48.348;7.878;2024-02-15T08:36:36;2.80;;;1.58;;
68010;SDS011;54794;48.348;7.878;2024-02-15T08:39:06;3.78;;;1.55;;
68010;SDS011;54794;48.348;7.878;2024-02-15T08:41:34;3.58;;;1.80;;
68010;SDS011;54794;48.348;7.878;2024-02-15T08:44:01;2.40;;;1.45;;
68010;SDS011;54794;48.348;7.878;2024-02-15T08:46:32;3.22;;;1.90;;
68010;SDS011;54794;48.348;7.878;2024-02-15T08:48:59;3.47;;;1.70;;
68010;SDS011;54794;48.348;7.878;2024-02-15T08:51:27;1.88;;;1.10;;
68010;SDS011;54794;48.348;7.878;2024-02-15T08:53:54;4.07;;;1.40;;
68010;SDS011;54794;48.348;7.878;2024-02-15T08:56:23;2.42;;;1.10;;
68010;SDS011;54794;48.348;7.878;2024-02-15T08:58:50;2.28;;;0.93;;
68010;SDS011;54794;48.348;7.878;2024-02-15T09:01:17;2.33;;;1.40;;
68010;SDS011;54794;48.348;7.878;2024-02-15T09:03:44;2.10;;;1.33;;
68010;SDS011;54794;48.348;7.878;2024-02-15T09:06:11;2.58;;;1.58;;
68010;SDS011;54794;48.348;7.878;2024-02-15T09:08:38;2.55;;;1.40;;
68010;SDS011;54794;48.348;7.878;2024-02-15T09:11:05;1.70;;;0.95;;
68010;SDS011;54794;48.348;7.878;2024-02-15T09:13:34;1.30;;;0.88;;
68010;SDS011;54794;48.348;7.878;2024-02-15T09:16:03;1.42;;;0.70;;
68010;SDS011;54794;48.348;7.878;2024-02-15T09:18:31;1.33;;;0.70;;
68010;SDS011;54794;48.348;7.878;2024-02-15T09:21:00;1.70;;;0.70;;
68010;SDS011;54794;48.348;7.878;2024-02-15T09:23:28;1.27;;;0.82;;
68010;SDS011;54794;48.348;7.878;2024-02-15T09:25:57;3.42;;;0.90;;
68010;SDS011;54794;48.348;7.878;2024-02-15T09:28:27;1.58;;;0.73;;
68010;SDS011;54794;48.348;7.878;2024-02-15T09:30:54;2.43;;;0.87;;
68010;SDS011;54794;48.348;7.878;2024-02-15T09:33:25;4.07;;;0.82;;
68010;SDS011;54794;48.348;7.878;2024-02-15T09:35:52;2.22;;;0.68;;
68010;SDS011;54794;48.348;7.878;2024-02-15T09:38:21;2.00;;;1.02;;
68010;SDS011;54794;48.348;7.878;2024-02-15T09:40:48;1.10;;;0.80;;
68010;SDS011;54794;48.348;7.878;2024-02-15T09:43:16;2.05;;;0.80;;
68010;SDS011;54794;48.348;7.878;2024-02-15T09:48:10;1.52;;;0.77;;
68010;SDS011;54794;48.348;7.878;2024-02-15T09:50:39;2.00;;;0.70;;
68010;SDS011;54794;48.348;7.878;2024-02-15T09:53:09;1.48;;;0.90;;
68010;SDS011;54794;48.348;7.878;2024-02-15T09:55:40;2.63;;;0.80;;
68010;SDS011;54794;48.348;7.878;2024-02-15T09:58:08;2.03;;;1.10;;
68010;SDS011;54794;48.348;7.878;2024-02-15T10:00:35;4.13;;;0.90;;
68010;SDS011;54794;48.348;7.878;2024-02-15T10:03:02;2.72;;;1.10;;
68010;SDS011;54794;48.348;7.878;2024-02-15T10:05:33;1.92;;;1.10;;
68010;SDS011;54794;48.348;7.878;2024-02-15T10:08:01;1.52;;;0.77;;
68010;SDS011;54794;48.348;7.878;2024-02-15T10:10:30;1.60;;;0.90;;
68010;SDS011;54794;48.348;7.878;2024-02-15T10:12:59;1.15;;;0.77;;
68010;SDS011;54794;48.348;7.878;2024-02-15T10:15:28;2.72;;;1.17;;
68010;SDS011;54794;48.348;7.878;2024-02-15T10:18:07;1.80;;;1.10;;
68010;SDS011;54794;48.348;7.878;2024-02-15T10:20:38;2.25;;;1.17;;
68010;SDS011;54794;48.348;7.878;2024-02-15T10:23:09;2.17;;;1.00;;
68010;SDS011;54794;48.348;7.878;2024-02-15T10:25:44;2.20;;;1.20;;
68010;SDS011;54794;48.348;7.878;2024-02-15T10:28:12;2.58;;;1.13;;
68010;SDS011;54794;48.348;7.878;2024-02-15T10:30:42;1.52;;;0.90;;
68010;SDS011;54794;48.348;7.878;2024-02-15T10:33:28;3.47;;;1.30;;
68010;SDS011;54794;48.348;7.878;2024-02-15T10:36:06;3.65;;;1.63;;
68010;SDS011;54794;48.348;7.878;2024-02-15T10:38:50;1.83;;;1.00;;
68010;SDS011;54794;48.348;7.878;2024-02-15T10:41:17;2.22;;;0.90;;
68010;SDS011;54794;48.348;7.878;2024-02-15T10:43:45;2.78;;;1.02;;
68010;SDS011;54794;48.348;7.878;2024-02-15T10:46:14;1.42;;;0.88;;
68010;SDS011;54794;48.348;7.878;2024-02-15T10:48:46;2.30;;;1.05;;
68010;SDS011;54794;48.348;7.878;2024-02-15T10:51:14;2.70;;;1.08;;
68010;SDS011;54794;48.348;7.878;2024-02-15T10:53:45;1.88;;;1.08;;
68010;SDS011;54794;48.348;7.878;2024-02-15T10:56:27;2.22;;;1.10;;
68010;SDS011;54794;48.348;7.878;2024-02-15T10:59:19;2.47;;;1.20;;
68010;SDS011;54794;48.348;7.878;2024-02-15T11:01:46;1.85;;;1.08;;
68010;SDS011;54794;48.348;7.878;2024-02-15T11:04:23;1.60;;;0.90;;
68010;SDS011;54794;48.348;7.878;2024-02-15T11:06:58;2.97;;;1.27;;
68010;SDS011;54794;48.348;7.878;2024-02-15T11:09:28;2.40;;;1.33;;
68010;SDS011;54794;48.348;7.878;2024-02-15T11:11:56;1.75;;;1.15;;
68010;SDS011;54794;48.348;7.878;2024-02-15T11:14:28;1.83;;;0.85;;
68010;SDS011;54794;48.348;7.878;2024-02-15T11:17:01;2.55;;;1.17;;
68010;SDS011;54794;48.348;7.878;2024-02-15T11:24:30;1.85;;;0.70;;
68010;SDS011;54794;48.348;7.878;2024-02-15T11:27:07;2.15;;;0.95;;
68010;SDS011;54794;48.348;7.878;2024-02-15T11:35:17;1.65;;;0.80;;
68010;SDS011;54794;48.348;7.878;2024-02-15T11:37:55;2.13;;;1.00;;
68010;SDS011;54794;48.348;7.878;2024-02-15T11:43:08;2.25;;;0.90;;
68010;SDS011;54794;48.348;7.878;2024-02-15T11:45:37;1.83;;;0.80;;
68010;SDS011;54794;48.348;7.878;2024-02-15T11:48:07;1.80;;;1.20;;
68010;SDS011;54794;48.348;7.878;2024-02-15T11:50:39;2.40;;;1.20;;
68010;SDS011;54794;48.348;7.878;2024-02-15T11:53:11;2.38;;;1.13;;
68010;SDS011;54794;48.348;7.878;2024-02-15T11:55:39;2.75;;;1.25;;
68010;SDS011;54794;48.348;7.878;2024-02-15T11:58:11;3.42;;;1.50;;
68010;SDS011;54794;48.348;7.878;2024-02-15T12:00:49;2.97;;;1.15;;
68010;SDS011;54794;48.348;7.878;2024-02-15T12:03:36;1.92;;;1.10;;
68010;SDS011;54794;48.348;7.878;2024-02-15T12:06:32;1.48;;;1.00;;
68010;SDS011;54794;48.348;7.878;2024-02-15T12:09:18;1.70;;;1.20;;
68010;SDS011;54794;48.348;7.878;2024-02-15T12:12:04;4.05;;;1.40;;
68010;SDS011;54794;48.348;7.878;2024-02-15T12:14:50;2.50;;;1.33;;
68010;SDS011;54794;48.348;7.878;2024-02-15T12:17:46;2.10;;;1.30;;
68010;SDS011;54794;48.348;7.878;2024-02-15T12:20:35;2.92;;;1.40;;
68010;SDS011;54794;48.348;7.878;2024-02-15T12:23:04;2.53;;;1.50;;
68010;SDS011;54794;48.348;7.878;2024-02-15T12:25:34;3.65;;;1.60;;
68010;SDS011;54794;48.348;7.878;2024-02-15T12:30:35;2.60;;;1.30;;
68010;SDS011;54794;48.348;7.878;2024-02-15T12:33:11;1.95;;;1.10;;
68010;SDS011;54794;48.348;7.878;2024-02-15T12:35:49;3.10;;;1.40;;
68010;SDS011;54794;48.348;7.878;2024-02-15T12:38:59;1.88;;;1.33;;
68010;SDS011;54794;48.348;7.878;2024-02-15T12:41:38;2.28;;;1.25;;
68010;SDS011;54794;48.348;7.878;2024-02-15T12:44:52;2.00;;;1.08;;
68010;SDS011;54794;48.348;7.878;2024-02-15T12:47:01;1.80;;;1.08;;
68010;SDS011;54794;48.348;7.878;2024-02-15T12:49:31;2.47;;;1.10;;
68010;SDS011;54794;48.348;7.878;2024-02-15T12:55:09;2.60;;;1.10;;
68010;SDS011;54794;48.348;7.878;2024-02-15T12:57:52;4.05;;;1.00;;
68010;SDS011;54794;48.348;7.878;2024-02-15T13:03:01;1.60;;;1.08;;
68010;SDS011;54794;48.348;7.878;2024-02-15T13:05:36;1.27;;;0.70;;
68010;SDS011;54794;48.348;7.878;2024-02-15T13:08:09;2.08;;;1.10;;
68010;SDS011;54794;48.348;7.878;2024-02-15T13:10:39;2.45;;;1.00;;
68010;SDS011;54794;48.348;7.878;2024-02-15T13:13:07;1.48;;;0.77;;
68010;SDS011;54794;48.348;7.878;2024-02-15T13:15:40;2.55;;;0.95;;
68010;SDS011;54794;48.348;7.878;2024-02-15T13:18:12;2.03;;;1.13;;
68010;SDS011;54794;48.348;7.878;2024-02-15T13:20:41;1.20;;;0.80;;
68010;SDS011;54794;48.348;7.878;2024-02-15T13:23:09;2.35;;;0.80;;
68010;SDS011;54794;48.348;7.878;2024-02-15T13:25:49;1.95;;;0.82;;
68010;SDS011;54794;48.348;7.878;2024-02-15T13:28:18;1.13;;;0.80;;
68010;SDS011;54794;48.348;7.878;2024-02-15T13:33:19;1.27;;;0.57;;
68010;SDS011;54794;48.348;7.878;2024-02-15T13:35:50;1.30;;;0.63;;
68010;SDS011;54794;48.348;7.878;2024-02-15T13:38:17;2.38;;;0.70;;
68010;SDS011;54794;48.348;7.878;2024-02-15T13:41:01;1.63;;;0.70;;
68010;SDS011;54794;48.348;7.878;2024-02-15T13:43:42;1.52;;;0.75;;
68010;SDS011;54794;48.348;7.878;2024-02-15T13:46:31;1.15;;;0.60;;
68010;SDS011;54794;48.348;7.878;2024-02-15T13:49:08;2.78;;;0.60;;
68010;SDS011;54794;48.348;7.878;2024-02-15T13:51:57;1.10;;;0.57;;
68010;SDS011;54794;48.348;7.878;2024-02-15T13:54:45;1.33;;;0.70;;
68010;SDS011;54794;48.348;7.878;2024-02-15T13:57:30;1.50;;;0.70;;
68010;SDS011;54794;48.348;7.878;2024-02-15T14:00:19;1.55;;;0.80;;
68010;SDS011;54794;48.348;7.878;2024-02-15T14:03:52;2.58;;;0.90;;
68010;SDS011;54794;48.348;7.878;2024-02-15T14:09:34;1.40;;;0.73;;
68010;SDS011;54794;48.348;7.878;2024-02-15T14:12:48;1.15;;;0.88;;
68010;SDS011;54794;48.348;7.878;2024-02-15T14:16:03;1.80;;;0.88;;
68010;SDS011;54794;48.348;7.878;2024-02-15T14:21:30;1.85;;;0.88;;
68010;SDS011;54794;48.348;7.878;2024-02-15T14:24:12;3.15;;;0.95;;
68010;SDS011;54794;48.348;7.878;2024-02-15T14:30:28;2.42;;;0.90;;
68010;SDS011;54794;48.348;7.878;2024-02-15T14:33:47;2.72;;;1.20;;
68010;SDS011;54794;48.348;7.878;2024-02-15T14:36:58;2.80;;;1.02;;
68010;SDS011;54794;48.348;7.878;2024-02-15T14:39:39;1.50;;;1.00;;
68010;SDS011;54794;48.348;7.878;2024-02-15T14:42:32;1.27;;;0.73;;
68010;SDS011;54794;48.348;7.878;2024-02-15T14:45:44;2.15;;;1.08;;
68010;SDS011;54794;48.348;7.878;2024-02-15T14:48:50;1.95;;;0.80;;
68010;SDS011;54794;48.348;7.878;2024-02-15T14:51:50;1.58;;;0.82;;
68010;SDS011;54794;48.348;7.878;2024-02-15T14:54:30;2.22;;;0.98;;
68010;SDS011;54794;48.348;7.878;2024-02-15T14:57:25;2.47;;;0.63;;
68010;SDS011;54794;48.348;7.878;2024-02-15T15:00:12;1.70;;;0.70;;
68010;SDS011;54794;48.348;7.878;2024-02-15T15:02:57;1.10;;;0.70;;
68010;SDS011;54794;48.348;7.878;2024-02-15T15:05:31;2.95;;;1.00;;
68010;SDS011;54794;48.348;7.878;2024-02-15T15:08:23;1.13;;;0.60;;
68010;SDS011;54794;48.348;7.878;2024-02-15T15:11:31;1.35;;;0.80;;
68010;SDS011;54794;48.348;7.878;2024-02-15T15:14:24;1.70;;;0.90;;
68010;SDS011;54794;48.348;7.878;2024-02-15T15:17:08;1.45;;;0.80;;
68010;SDS011;54794;48.348;7.878;2024-02-15T15:19:50;1.55;;;0.68;;
68010;SDS011;54794;48.348;7.878;2024-02-15T15:22:35;2.65;;;1.00;;
68010;SDS011;54794;48.348;7.878;2024-02-15T15:25:10;1.70;;;0.90;;
68010;SDS011;54794;48.348;7.878;2024-02-15T15:27:57;2.70;;;0.75;;
68010;SDS011;54794;48.348;7.878;2024-02-15T15:30:32;1.48;;;0.90;;
68010;SDS011;54794;48.348;7.878;2024-02-15T15:33:03;1.63;;;0.90;;
68010;SDS011;54794;48.348;7.878;2024-02-15T15:35:40;1.92;;;1.00;;
68010;SDS011;54794;48.348;7.878;2024-02-15T15:38:20;1.63;;;0.80;;
68010;SDS011;54794;48.348;7.878;2024-02-15T15:40:55;1.67;;;1.05;;
68010;SDS011;54794;48.348;7.878;2024-02-15T15:43:27;1.10;;;0.70;;
68010;SDS011;54794;48.348;7.878;2024-02-15T15:46:03;2.17;;;0.80;;
68010;SDS011;54794;48.348;7.878;2024-02-15T15:48:51;2.20;;;0.75;;
68010;SDS011;54794;48.348;7.878;2024-02-15T15:51:22;2.22;;;0.75;;
68010;SDS011;54794;48.348;7.878;2024-02-15T15:54:02;3.42;;;1.00;;
68010;SDS011;54794;48.348;7.878;2024-02-15T15:56:42;2.17;;;1.02;;
68010;SDS011;54794;48.348;7.878;2024-02-15T15:59:26;2.13;;;0.65;;
68010;SDS011;54794;48.348;7.878;2024-02-15T16:02:08;1.65;;;0.80;;
68010;SDS011;54794;48.348;7.878;2024-02-15T16:04:43;1.95;;;1.00;;
68010;SDS011;54794;48.348;7.878;2024-02-15T16:07:20;3.17;;;0.70;;
68010;SDS011;54794;48.348;7.878;2024-02-15T16:09:59;2.78;;;0.80;;